Time;durP1;ratioP1;P1;durP2;ratioP2;P2;SDS_P1;SDS_P2;PMS_P1;PMS_P2;Temp;Humidity;BMP_temperature;BMP_pressure;BME280_temperature;BME280_humidity;BME280_pressure;Samples;Min_cycle;Max_cycle;Signal;HPM_P1;HPM_P2
2020/12/06 00:00:32;;;;;;;7.15;3.83;;;1.90;99.90;;;;;;4085580;29;20074;-87
2020/12/06 00:02:33;;;;;;;3.42;2.20;;;1.90;99.90;;;;;;4084709;29;20085;-87
2020/12/06 00:04:35;;;;;;;3.50;2.40;;;1.90;99.90;;;;;;4087418;29;20555;-87
2020/12/06 00:06:37;;;;;;;2.00;1.73;;;1.90;99.90;;;;;;4084867;28;20084;-87
2020/12/06 00:08:38;;;;;;;3.88;2.20;;;1.80;99.90;;;;;;4069421;29;20057;-87
2020/12/06 00:10:39;;;;;;;3.45;1.77;;;1.70;99.90;;;;;;4100499;28;20503;-88
2020/12/06 00:12:42;;;;;;;3.42;1.95;;;1.70;99.90;;;;;;4084354;28;20051;-87
2020/12/06 00:14:43;;;;;;;2.70;2.40;;;1.70;99.90;;;;;;4098677;28;20063;-87
2020/12/06 00:16:47;;;;;;;3.80;2.70;;;1.80;99.90;;;;;;4087537;29;20073;-87
2020/12/06 00:18:48;;;;;;;4.15;2.00;;;1.80;99.90;;;;;;4101461;28;20059;-87
2020/12/06 00:20:50;;;;;;;4.20;3.15;;;1.70;99.90;;;;;;4098997;28;20067;-88
2020/12/06 00:22:51;;;;;;;3.88;2.58;;;1.80;99.90;;;;;;4084316;29;20059;-88
2020/12/06 00:24:53;;;;;;;2.30;1.80;;;1.80;99.90;;;;;;4069833;29;20512;-87
2020/12/06 00:26:57;;;;;;;5.18;2.30;;;1.80;99.90;;;;;;4084791;29;20051;-87
2020/12/06 00:28:58;;;;;;;4.53;3.33;;;1.90;99.90;;;;;;4084421;28;20106;-87
2020/12/06 00:31:00;;;;;;;2.70;1.77;;;1.90;99.90;;;;;;4084444;29;20427;-87
2020/12/06 00:33:01;;;;;;;1.50;1.33;;;1.80;99.90;;;;;;4084515;29;20389;-87
2020/12/06 00:35:06;;;;;;;3.65;1.95;;;1.90;99.90;;;;;;4084393;28;20070;-87
2020/12/06 00:37:08;;;;;;;;;;;1.90;99.90;;;;;;4069686;29;20099;-87
2020/12/06 00:39:09;;;;;;;9.15;3.10;;;1.90;99.90;;;;;;4100398;28;19928;-88
2020/12/06 00:41:12;;;;;;;5.85;3.33;;;1.80;99.90;;;;;;4090782;29;20040;-87
2020/12/06 00:43:13;;;;;;;4.63;3.70;;;1.80;99.90;;;;;;4083984;29;20054;-87
2020/12/06 00:45:14;;;;;;;3.42;2.20;;;1.90;99.90;;;;;;4069308;29;20059;-87
2020/12/06 00:47:15;;;;;;;3.78;2.45;;;1.90;99.90;;;;;;4086550;28;20074;-87
2020/12/06 00:49:17;;;;;;;6.53;4.15;;;1.90;99.90;;;;;;4084443;29;20135;-87
2020/12/06 00:51:18;;;;;;;4.47;3.00;;;1.90;99.90;;;;;;4086830;29;20056;-87
2020/12/06 00:53:19;;;;;;;12.93;3.22;;;1.90;99.90;;;;;;4083644;29;20051;-86
2020/12/06 00:55:21;;;;;;;3.67;3.28;;;2.00;99.90;;;;;;4068882;29;20066;-87
2020/12/06 00:57:22;;;;;;;3.20;2.80;;;2.00;99.90;;;;;;4098405;28;20051;-87
2020/12/06 00:59:24;;;;;;;6.80;3.35;;;2.10;99.90;;;;;;4083866;29;20059;-88
2020/12/06 01:01:25;;;;;;;3.70;1.83;;;2.00;99.90;;;;;;4086464;29;20059;-87
2020/12/06 01:03:26;;;;;;;8.38;2.45;;;2.00;99.90;;;;;;4084234;29;20059;-87
2020/12/06 01:05:28;;;;;;;3.42;2.85;;;2.00;99.90;;;;;;4102042;28;20054;-87
2020/12/06 01:07:33;;;;;;;9.18;2.97;;;1.90;99.90;;;;;;4102400;28;20086;-87
2020/12/06 01:09:35;;;;;;;3.50;2.60;;;1.90;99.90;;;;;;4084131;29;20591;-87
2020/12/06 01:11:36;;;;;;;2.17;1.42;;;1.80;99.90;;;;;;4068584;29;20555;-87
2020/12/06 01:13:37;;;;;;;10.40;2.90;;;1.90;99.90;;;;;;4085851;28;20424;-87
2020/12/06 01:15:38;;;;;;;6.75;3.47;;;1.90;99.90;;;;;;4083813;29;20510;-88
2020/12/06 01:17:40;;;;;;;3.67;1.67;;;1.90;99.90;;;;;;4086086;29;20147;-87
2020/12/06 01:19:42;;;;;;;3.95;2.53;;;1.90;99.90;;;;;;4067827;29;20060;-86
2020/12/06 01:21:50;;;;;;;5.97;2.42;;;1.90;99.90;;;;;;4099337;28;20052;-87
2020/12/06 01:23:51;;;;;;;2.88;1.60;;;1.90;99.90;;;;;;4098171;28;20055;-87
2020/12/06 01:25:52;;;;;;;4.82;2.45;;;1.90;99.90;;;;;;4083083;29;20048;-87
2020/12/06 01:27:54;;;;;;;3.72;2.55;;;1.90;99.90;;;;;;4083726;29;20451;-87
2020/12/06 01:29:55;;;;;;;3.45;2.97;;;1.90;99.90;;;;;;4083766;29;20051;-87
2020/12/06 01:31:56;;;;;;;0.93;0.93;;;1.80;99.90;;;;;;4075431;29;21624;-87
2020/12/06 01:33:57;;;;;;;3.42;1.98;;;1.80;99.90;;;;;;4072837;28;20415;-87
2020/12/06 01:35:59;;;;;;;6.60;3.78;;;1.80;99.90;;;;;;4068927;29;20063;-87
2020/12/06 01:38:00;;;;;;;4.63;3.53;;;1.90;99.90;;;;;;4086095;29;20110;-87
2020/12/06 01:40:02;;;;;;;2.53;2.42;;;1.90;99.90;;;;;;4100534;28;20060;-88
2020/12/06 01:42:04;;;;;;;5.82;2.63;;;1.80;99.90;;;;;;4068071;29;20169;-87
2020/12/06 01:44:05;;;;;;;4.05;1.45;;;1.90;99.90;;;;;;4085965;29;20171;-88
2020/12/06 01:46:06;;;;;;;1.30;1.17;;;1.90;99.90;;;;;;4083336;29;20055;-87
2020/12/06 01:48:08;;;;;;;10.63;3.00;;;1.90;99.90;;;;;;4067939;29;20126;-88
2020/12/06 01:50:09;;;;;;;2.97;1.70;;;1.90;99.90;;;;;;4100419;28;20051;-87
2020/12/06 01:52:10;;;;;;;2.47;2.28;;;1.90;99.90;;;;;;4070279;29;20444;-87
2020/12/06 01:54:11;;;;;;;2.00;1.73;;;1.90;99.90;;;;;;4079948;29;20413;-87
2020/12/06 01:56:13;;;;;;;3.63;2.47;;;2.00;99.90;;;;;;4082737;29;20069;-87
2020/12/06 01:58:14;;;;;;;4.05;2.85;;;2.00;99.90;;;;;;4100670;28;20070;-87
2020/12/06 02:00:16;;;;;;;7.20;2.33;;;1.90;99.90;;;;;;4099283;28;20062;-87
2020/12/06 02:02:17;;;;;;;3.38;1.58;;;1.90;99.90;;;;;;4083693;29;20052;-87
2020/12/06 02:04:18;;;;;;;2.67;2.15;;;1.90;99.90;;;;;;4099049;28;20131;-87
2020/12/06 02:06:20;;;;;;;2.22;1.75;;;1.80;99.90;;;;;;4083118;29;20055;-87
2020/12/06 02:08:21;;;;;;;1.83;1.25;;;1.80;99.90;;;;;;4082915;29;20420;-87
2020/12/06 02:10:27;;;;;;;5.85;1.58;;;1.80;99.90;;;;;;4069603;28;20073;-87
2020/12/06 02:12:28;;;;;;;2.15;1.58;;;1.80;99.90;;;;;;4084003;29;20056;-87
2020/12/06 02:14:29;;;;;;;1.65;1.55;;;1.80;99.90;;;;;;4084130;29;20446;-87
2020/12/06 02:16:31;;;;;;;0.57;0.57;;;1.80;99.90;;;;;;4085359;28;20048;-87
2020/12/06 02:18:32;;;;;;;6.32;3.92;;;1.80;99.90;;;;;;4083650;29;20134;-87
2020/12/06 02:20:33;;;;;;;5.70;2.97;;;1.80;99.90;;;;;;4085319;29;20058;-87
2020/12/06 02:22:34;;;;;;;3.58;1.45;;;1.80;99.90;;;;;;4085739;29;20067;-87
2020/12/06 02:24:36;;;;;;;2.35;2.25;;;1.80;99.90;;;;;;4083426;29;20056;-87
2020/12/06 02:26:44;;;;;;;1.88;1.80;;;1.90;99.90;;;;;;4084416;29;20087;-87
2020/12/06 02:28:46;;;;;;;5.32;2.70;;;1.90;99.90;;;;;;4099374;28;20065;-87
2020/12/06 02:30:47;;;;;;;4.75;2.00;;;1.90;99.90;;;;;;4067247;29;20052;-87
2020/12/06 02:32:48;;;;;;;3.75;1.17;;;1.90;99.90;;;;;;4099044;28;20051;-87
2020/12/06 02:34:50;;;;;;;3.40;1.13;;;1.90;99.90;;;;;;4067460;29;20070;-88
2020/12/06 02:36:51;;;;;;;6.80;2.28;;;1.90;99.90;;;;;;4066851;29;20536;-87
2020/12/06 02:38:52;;;;;;;1.52;1.42;;;1.90;99.90;;;;;;4085682;29;20047;-88
2020/12/06 02:40:54;;;;;;;4.97;2.38;;;1.90;99.90;;;;;;4086244;29;20055;-87
2020/12/06 02:42:55;;;;;;;2.67;2.25;;;1.90;99.90;;;;;;4086217;29;20059;-87
2020/12/06 02:44:56;;;;;;;6.18;1.73;;;1.90;99.90;;;;;;4087989;29;20052;-87
2020/12/06 02:47:00;;;;;;;10.45;1.50;;;1.90;99.90;;;;;;4110390;28;20134;-87
2020/12/06 02:49:02;;;;;;;10.38;3.05;;;1.80;99.90;;;;;;4072651;28;20055;-88
2020/12/06 02:51:04;;;;;;;2.88;2.42;;;1.90;99.90;;;;;;4085974;29;20056;-87
2020/12/06 02:53:06;;;;;;;6.22;1.75;;;1.90;99.90;;;;;;4085555;29;20054;-87
2020/12/06 02:55:07;;;;;;;2.25;2.15;;;1.90;99.90;;;;;;4073264;29;20052;-88
2020/12/06 02:57:09;;;;;;;3.22;2.35;;;1.90;99.90;;;;;;4098216;28;20054;-86
2020/12/06 02:59:10;;;;;;;2.22;1.45;;;1.90;99.90;;;;;;4085285;29;20074;-87
2020/12/06 03:01:11;;;;;;;2.20;1.65;;;1.90;99.90;;;;;;4072833;29;20051;-87
2020/12/06 03:03:12;;;;;;;3.88;1.85;;;2.00;99.90;;;;;;4086205;29;20065;-87
2020/12/06 03:05:14;;;;;;;7.82;2.88;;;1.90;99.90;;;;;;4088052;29;20055;-87
2020/12/06 03:07:16;;;;;;;4.50;2.53;;;1.90;99.90;;;;;;4085262;29;20048;-87
2020/12/06 03:09:17;;;;;;;2.55;0.90;;;1.90;99.90;;;;;;4104505;28;20055;-87
2020/12/06 03:11:18;;;;;;;0.77;0.63;;;1.90;99.90;;;;;;4085368;29;20131;-87
2020/12/06 03:13:19;;;;;;;0.93;0.80;;;1.90;99.90;;;;;;4088010;28;20048;-87
2020/12/06 03:15:21;;;;;;;3.30;2.08;;;1.90;99.90;;;;;;4102276;28;20063;-87
2020/12/06 03:17:22;;;;;;;1.67;1.08;;;1.90;99.90;;;;;;4085579;29;20052;-87
2020/12/06 03:19:23;;;;;;;3.13;2.50;;;1.90;99.90;;;;;;4071799;29;20056;-87
2020/12/06 03:21:24;;;;;;;3.72;1.40;;;1.90;99.90;;;;;;4101531;28;20059;-87
2020/12/06 03:23:26;;;;;;;1.77;1.60;;;2.00;99.90;;;;;;4070429;29;20133;-87
2020/12/06 03:25:27;;;;;;;2.35;2.13;;;2.00;99.90;;;;;;4101202;28;20061;-87
2020/12/06 03:27:28;;;;;;;3.50;1.85;;;2.10;99.90;;;;;;4085978;29;20134;-87
2020/12/06 03:29:30;;;;;;;1.98;1.75;;;2.00;99.90;;;;;;4084538;29;20055;-87
2020/12/06 03:31:31;;;;;;;2.60;1.42;;;2.00;99.90;;;;;;4069645;28;20052;-87
2020/12/06 03:33:33;;;;;;;2.47;1.73;;;1.90;99.90;;;;;;4086369;29;20067;-87
2020/12/06 03:35:34;;;;;;;3.20;1.60;;;1.80;99.90;;;;;;4076198;29;20068;-87
2020/12/06 03:37:36;;;;;;;5.53;0.65;;;1.80;99.90;;;;;;4086770;29;20533;-88
2020/12/06 03:39:37;;;;;;;5.05;1.73;;;1.80;99.90;;;;;;4070095;29;20055;-89
2020/12/06 03:41:38;;;;;;;11.27;1.10;;;1.80;99.90;;;;;;4072116;29;20062;-88
2020/12/06 03:43:39;;;;;;;1.33;1.23;;;1.90;99.90;;;;;;4087045;29;20048;-88
2020/12/06 03:45:41;;;;;;;2.58;0.85;;;1.90;99.90;;;;;;4100827;28;20058;-88
2020/12/06 03:47:42;;;;;;;3.60;1.05;;;2.00;99.90;;;;;;4069563;29;20127;-88
2020/12/06 03:49:44;;;;;;;3.42;2.10;;;2.00;99.90;;;;;;4084450;28;20087;-88
2020/12/06 03:51:46;;;;;;;4.05;1.08;;;2.00;99.90;;;;;;4069532;29;20062;-88
2020/12/06 03:53:50;;;;;;;3.63;1.52;;;2.00;99.90;;;;;;4084049;28;20503;-88
2020/12/06 03:55:51;;;;;;;6.25;2.42;;;2.00;99.90;;;;;;4069405;29;20053;-88
2020/12/06 03:57:52;;;;;;;3.75;2.53;;;2.00;99.90;;;;;;4086021;29;20055;-88
2020/12/06 03:59:53;;;;;;;1.70;1.60;;;2.00;99.90;;;;;;4086472;29;20059;-88
2020/12/06 04:01:56;;;;;;;4.97;1.80;;;2.00;99.90;;;;;;4100576;28;20051;-88
2020/12/06 04:03:57;;;;;;;3.70;1.35;;;2.00;99.90;;;;;;4101848;28;20066;-88
2020/12/06 04:05:59;;;;;;;4.90;2.67;;;1.90;99.90;;;;;;4085542;28;20043;-88
2020/12/06 04:08:00;;;;;;;1.63;1.52;;;1.90;99.90;;;;;;4068913;29;20062;-88
2020/12/06 04:10:01;;;;;;;4.35;2.50;;;1.90;99.90;;;;;;4086485;29;20433;-89
2020/12/06 04:12:02;;;;;;;2.33;1.58;;;1.90;99.90;;;;;;4085846;29;20056;-88
2020/12/06 04:14:04;;;;;;;15.88;3.22;;;1.90;99.90;;;;;;4084768;29;20055;-88
2020/12/06 04:16:06;;;;;;;10.20;1.98;;;1.90;99.90;;;;;;4069233;29;20052;-88
2020/12/06 04:18:08;;;;;;;3.45;3.10;;;1.90;99.90;;;;;;4085201;28;20102;-88
2020/12/06 04:20:09;;;;;;;2.25;2.05;;;1.90;99.90;;;;;;4083845;29;20058;-88
2020/12/06 04:22:10;;;;;;;3.28;1.33;;;1.90;99.90;;;;;;4103091;28;20511;-88
2020/12/06 04:24:12;;;;;;;0.80;0.80;;;1.90;99.90;;;;;;4100877;28;20460;-89
2020/12/06 04:26:13;;;;;;;6.15;2.15;;;2.00;99.90;;;;;;4091582;28;20052;-88
2020/12/06 04:28:14;;;;;;;3.95;1.23;;;2.00;99.90;;;;;;4090087;28;20047;-88
2020/12/06 04:30:16;;;;;;;4.28;1.15;;;2.00;99.90;;;;;;4100159;28;20061;-88
2020/12/06 04:32:18;;;;;;;2.35;1.00;;;2.00;99.90;;;;;;4084512;29;20044;-88
2020/12/06 04:34:20;;;;;;;1.98;1.83;;;1.90;99.90;;;;;;4099652;28;20055;-88
2020/12/06 04:36:21;;;;;;;4.60;2.30;;;1.90;99.90;;;;;;4084962;29;20060;-88
2020/12/06 04:38:22;;;;;;;3.42;2.58;;;2.00;99.90;;;;;;4084256;29;20052;-88
2020/12/06 04:40:23;;;;;;;5.80;2.20;;;2.00;99.90;;;;;;4069242;29;20051;-88
2020/12/06 04:42:25;;;;;;;3.42;2.03;;;2.00;99.90;;;;;;4068766;29;20558;-88
2020/12/06 04:44:26;;;;;;;2.10;1.38;;;2.00;99.90;;;;;;4083945;29;20052;-88
2020/12/06 04:46:28;;;;;;;7.90;2.47;;;2.00;99.90;;;;;;4084249;29;20048;-88
2020/12/06 04:49:03;;;;;;;3.08;2.83;;;2.00;99.90;;;;;;4068607;29;20060;-88
2020/12/06 04:51:04;;;;;;;6.10;2.38;;;2.00;99.90;;;;;;4111594;28;20097;-88
2020/12/06 04:53:11;;;;;;;1.23;0.98;;;2.00;99.90;;;;;;4083988;28;20405;-88
2020/12/06 04:55:13;;;;;;;2.30;2.10;;;2.00;99.90;;;;;;4068318;29;20130;-88
2020/12/06 04:57:14;;;;;;;3.17;1.58;;;2.10;99.90;;;;;;4081552;29;20063;-88
2020/12/06 04:59:15;;;;;;;4.05;2.42;;;2.00;99.90;;;;;;4092771;29;20051;-88
2020/12/06 05:01:16;;;;;;;0.85;0.80;;;2.00;99.90;;;;;;4087103;29;20059;-89
2020/12/06 05:03:21;;;;;;;2.35;1.67;;;2.00;99.90;;;;;;4068617;29;20056;-88
2020/12/06 05:05:22;;;;;;;6.05;2.13;;;2.00;99.90;;;;;;4081620;29;20575;-88
2020/12/06 05:07:23;;;;;;;1.80;1.27;;;1.90;99.90;;;;;;4086683;29;20066;-88
2020/12/06 05:09:24;;;;;;;3.42;3.13;;;1.90;99.90;;;;;;4084441;29;20071;-88
2020/12/06 05:11:26;;;;;;;1.70;1.23;;;2.00;99.90;;;;;;4066940;29;20060;-88
2020/12/06 05:13:27;;;;;;;19.50;2.00;;;2.00;99.90;;;;;;4073133;29;20111;-88
2020/12/06 05:15:28;;;;;;;1.92;1.67;;;2.00;99.90;;;;;;4073997;29;20111;-88
2020/12/06 05:17:30;;;;;;;3.20;2.05;;;2.10;99.90;;;;;;4087421;29;20051;-88
2020/12/06 05:19:31;;;;;;;1.00;0.90;;;2.10;99.90;;;;;;4085965;29;20052;-88
2020/12/06 05:21:50;;;;;;;2.80;1.35;;;2.00;99.90;;;;;;4083646;29;20111;-88
2020/12/06 05:23:52;;;;;;;5.38;2.50;;;2.10;99.90;;;;;;4082230;29;20512;-89
2020/12/06 05:25:53;;;;;;;0.45;0.45;;;2.00;99.90;;;;;;4083874;29;20500;-88
2020/12/06 05:27:54;;;;;;;3.78;1.40;;;2.00;99.90;;;;;;4084935;28;20056;-88
2020/12/06 05:29:55;;;;;;;3.85;1.20;;;2.00;99.90;;;;;;4073513;29;20056;-88
2020/12/06 05:31:57;;;;;;;2.35;2.15;;;1.90;99.90;;;;;;4085572;29;20063;-88
2020/12/06 05:33:59;;;;;;;2.00;1.17;;;1.90;99.90;;;;;;4083978;28;20067;-88
2020/12/06 05:36:07;;;;;;;3.78;1.75;;;1.90;99.90;;;;;;4068166;29;20071;-88
2020/12/06 05:38:08;;;;;;;6.13;1.88;;;1.90;99.90;;;;;;4083074;29;20043;-88
2020/12/06 05:40:13;;;;;;;1.63;0.95;;;1.90;99.90;;;;;;4086198;29;20066;-88
2020/12/06 05:42:14;;;;;;;2.50;1.90;;;2.00;99.90;;;;;;4100020;28;20062;-88
2020/12/06 05:44:20;;;;;;;3.55;1.40;;;2.00;99.90;;;;;;4082667;29;20051;-88
2020/12/06 05:46:24;;;;;;;1.73;1.60;;;2.00;99.90;;;;;;4083814;28;20088;-88
2020/12/06 05:48:26;;;;;;;1.35;1.33;;;2.00;99.90;;;;;;4068234;29;20051;-88
2020/12/06 05:50:28;;;;;;;2.58;1.08;;;2.00;99.90;;;;;;4067136;29;20062;-88
2020/12/06 05:52:30;;;;;;;1.77;1.67;;;2.00;99.90;;;;;;4069830;29;20130;-88
2020/12/06 05:54:32;;;;;;;2.75;1.40;;;2.10;99.90;;;;;;4099034;28;20062;-88
2020/12/06 05:56:33;;;;;;;2.20;2.00;;;2.00;99.90;;;;;;4069264;29;20066;-88
2020/12/06 05:58:34;;;;;;;2.88;1.77;;;2.00;99.90;;;;;;4082990;29;20524;-88
2020/12/06 06:00:36;;;;;;;1.83;1.08;;;2.00;99.90;;;;;;4082737;29;20110;-88
2020/12/06 06:02:37;;;;;;;2.17;1.23;;;2.00;99.90;;;;;;4067717;29;20052;-88
2020/12/06 06:04:39;;;;;;;1.85;1.10;;;2.00;99.90;;;;;;4085400;29;20056;-87
2020/12/06 06:06:41;;;;;;;6.60;1.73;;;2.00;99.90;;;;;;4083353;29;20108;-88
2020/12/06 06:08:43;;;;;;;2.45;2.17;;;2.10;99.90;;;;;;4082389;29;20142;-88
2020/12/06 06:10:49;;;;;;;1.70;1.15;;;2.10;99.90;;;;;;4067104;29;20067;-88
2020/12/06 06:12:56;;;;;;;1.65;1.25;;;2.10;99.90;;;;;;4098829;28;20047;-88
2020/12/06 06:15:00;;;;;;;5.05;1.85;;;2.10;99.90;;;;;;4082838;29;20135;-88
2020/12/06 06:17:01;;;;;;;1.17;1.15;;;2.10;99.90;;;;;;4099395;28;20051;-88
2020/12/06 06:19:04;;;;;;;1.23;1.23;;;2.10;99.90;;;;;;4082886;29;20081;-88
2020/12/06 06:21:05;;;;;;;3.47;1.33;;;2.10;99.90;;;;;;4083421;29;20059;-88
2020/12/06 06:23:07;;;;;;;4.55;2.20;;;2.10;99.90;;;;;;4067509;29;20060;-88
2020/12/06 06:25:08;;;;;;;4.35;2.33;;;2.10;99.90;;;;;;4085268;29;20074;-88
2020/12/06 06:27:10;;;;;;;0.60;0.57;;;2.10;99.90;;;;;;4065861;29;20056;-88
2020/12/06 06:29:12;;;;;;;1.23;1.08;;;2.10;99.90;;;;;;4080408;29;20099;-89
2020/12/06 06:31:14;;;;;;;1.52;1.42;;;2.10;99.90;;;;;;4083049;29;20523;-89
2020/12/06 06:33:15;;;;;;;2.05;1.80;;;2.10;99.90;;;;;;4086078;29;20074;-89
2020/12/06 06:35:16;;;;;;;1.90;1.80;;;2.10;99.90;;;;;;4097503;28;20370;-89
2020/12/06 06:37:18;;;;;;;5.88;1.17;;;2.00;99.90;;;;;;4069780;29;20044;-89
2020/12/06 06:39:23;;;;;;;1.48;1.33;;;2.00;99.90;;;;;;4083215;29;20411;-89
2020/12/06 06:41:25;;;;;;;2.30;2.05;;;2.00;99.90;;;;;;4085304;29;20051;-89
2020/12/06 06:43:27;;;;;;;1.60;1.38;;;2.00;99.90;;;;;;4089588;29;20547;-89
2020/12/06 06:45:28;;;;;;;7.20;1.63;;;2.00;99.90;;;;;;4085464;29;20524;-89
2020/12/06 06:47:29;;;;;;;3.70;1.33;;;2.10;99.90;;;;;;4084155;28;20489;-89
2020/12/06 06:49:34;;;;;;;3.50;1.63;;;2.10;99.90;;;;;;4080864;29;20048;-89
2020/12/06 06:51:36;;;;;;;1.30;1.13;;;2.10;99.90;;;;;;4098429;28;20118;-89
2020/12/06 06:53:38;;;;;;;3.70;2.03;;;2.10;99.90;;;;;;4082406;29;20443;-89
2020/12/06 06:55:52;;;;;;;1.42;0.88;;;2.10;99.90;;;;;;4082607;29;20056;-87
2020/12/06 06:57:53;;;;;;;1.13;1.02;;;2.10;99.90;;;;;;4082329;29;20429;-88
2020/12/06 06:59:56;;;;;;;9.05;2.08;;;2.10;99.90;;;;;;4083166;29;20512;-86
2020/12/06 07:01:57;;;;;;;0.90;0.60;;;2.10;99.90;;;;;;4082505;29;20051;-86
2020/12/06 07:03:58;;;;;;;3.15;0.70;;;2.10;99.90;;;;;;4082948;29;20059;-86
2020/12/06 07:06:00;;;;;;;2.50;1.13;;;2.10;99.90;;;;;;4084063;28;20058;-87
2020/12/06 07:08:02;;;;;;;1.10;1.00;;;2.10;99.90;;;;;;4088151;29;20073;-88
2020/12/06 07:10:06;;;;;;;1.73;1.60;;;2.10;99.90;;;;;;4083962;29;20059;-88
2020/12/06 07:12:08;;;;;;;3.63;1.20;;;2.10;99.90;;;;;;4086209;29;20421;-88
2020/12/06 07:14:10;;;;;;;1.42;0.95;;;2.10;99.90;;;;;;4092891;29;20046;-88
2020/12/06 07:16:11;;;;;;;5.00;1.60;;;2.10;99.90;;;;;;4100568;28;20054;-87
2020/12/06 07:18:13;;;;;;;2.60;1.65;;;2.20;99.90;;;;;;4083289;29;20062;-88
2020/12/06 07:20:15;;;;;;;1.13;1.08;;;2.20;99.90;;;;;;4098197;28;20508;-88
2020/12/06 07:22:16;;;;;;;1.17;1.10;;;2.20;99.90;;;;;;4069561;29;20044;-89
2020/12/06 07:24:18;;;;;;;2.65;2.20;;;2.20;99.90;;;;;;4084332;29;20056;-92
2020/12/06 07:26:20;;;;;;;5.63;1.77;;;2.10;99.90;;;;;;4116318;28;20046;-91
2020/12/06 07:28:22;;;;;;;1.85;0.90;;;2.10;99.90;;;;;;4100927;29;20048;-90
2020/12/06 07:30:23;;;;;;;1.23;1.10;;;2.10;99.90;;;;;;4118884;28;20138;-91
2020/12/06 07:32:24;;;;;;;8.18;1.67;;;2.10;99.90;;;;;;4103239;28;20466;-91
2020/12/06 07:34:26;;;;;;;1.67;1.50;;;2.20;99.90;;;;;;4120521;28;20046;-93
2020/12/06 07:36:34;;;;;;;7.30;1.40;;;2.20;99.90;;;;;;4119966;28;20455;-92
2020/12/06 07:38:35;;;;;;;4.50;2.00;;;2.30;99.90;;;;;;4120642;28;20410;-92
2020/12/06 07:40:36;;;;;;;7.68;1.85;;;2.30;99.90;;;;;;4117813;28;20055;-93
2020/12/06 07:42:38;;;;;;;2.30;2.20;;;2.20;99.90;;;;;;4101461;28;20533;-88
2020/12/06 07:44:46;;;;;;;4.65;3.08;;;2.20;99.90;;;;;;4103452;28;20066;-92
2020/12/06 07:46:59;;;;;;;1.45;1.10;;;2.20;99.90;;;;;;4116520;28;20043;-94
2020/12/06 07:49:00;;;;;;;2.50;1.63;;;2.20;99.90;;;;;;4104074;28;20867;-94
2020/12/06 07:51:01;;;;;;;1.58;1.48;;;2.20;99.90;;;;;;4120448;28;20057;-93
2020/12/06 07:53:02;;;;;;;2.10;0.93;;;2.30;99.90;;;;;;4117655;28;20051;-91
2020/12/06 07:55:05;;;;;;;1.60;1.45;;;2.30;99.90;;;;;;4105681;28;20053;-91
2020/12/06 07:57:07;;;;;;;1.55;1.45;;;2.30;99.90;;;;;;4116090;28;20059;-94
2020/12/06 07:59:20;;;;;;;0.57;0.57;;;2.30;99.90;;;;;;4107714;28;20106;-93
2020/12/06 08:01:21;;;;;;;4.15;1.88;;;2.30;99.90;;;;;;4085053;29;20535;-93
2020/12/06 08:03:22;;;;;;;1.58;0.68;;;2.30;99.90;;;;;;4117910;28;20057;-94
2020/12/06 08:05:26;;;;;;;0.50;0.50;;;2.30;99.90;;;;;;4100183;29;20066;-94
2020/12/06 08:07:31;;;;;;;5.88;1.52;;;2.30;99.90;;;;;;4117201;28;20483;-94
2020/12/06 08:09:33;;;;;;;2.10;1.92;;;2.40;99.90;;;;;;4102680;28;20055;-93
2020/12/06 08:11:38;;;;;;;3.83;1.70;;;2.40;99.90;;;;;;4101101;28;20535;-95
2020/12/06 08:13:39;;;;;;;;;;;2.40;99.90;;;;;;4105546;28;20055;-96
2020/12/06 08:15:41;;;;;;;2.45;1.67;;;2.40;99.90;;;;;;4118970;28;19922;-94
2020/12/06 08:17:48;;;;;;;0.82;0.70;;;2.50;99.90;;;;;;4100582;29;20055;-89
2020/12/06 08:19:50;;;;;;;1.30;0.55;;;2.50;99.90;;;;;;4115918;28;20519;-90
2020/12/06 08:21:51;;;;;;;3.75;1.85;;;2.50;99.90;;;;;;4084931;29;20054;-89
2020/12/06 08:23:52;;;;;;;3.15;1.88;;;2.50;99.90;;;;;;4095234;28;20431;-90
2020/12/06 08:25:53;;;;;;;1.73;1.63;;;2.50;99.90;;;;;;4115903;28;20053;-93
2020/12/06 08:27:56;;;;;;;2.80;2.42;;;2.50;99.90;;;;;;4085678;28;20064;-92
2020/12/06 08:29:57;;;;;;;2.72;1.20;;;2.60;99.90;;;;;;4116662;28;20054;-93
2020/12/06 08:32:02;;;;;;;2.55;0.95;;;2.60;99.90;;;;;;4116004;28;20077;-95
2020/12/06 08:34:11;;;;;;;4.53;1.23;;;2.60;99.90;;;;;;4118773;28;20046;-92
2020/12/06 08:36:22;;;;;;;1.58;1.42;;;2.70;99.90;;;;;;4096774;28;20051;-89
2020/12/06 08:38:31;;;;;;;2.25;1.17;;;2.70;99.90;;;;;;4099869;28;20047;-82
2020/12/06 08:40:32;;;;;;;2.72;1.83;;;2.80;99.90;;;;;;4116148;28;20050;-95
2020/12/06 08:42:33;;;;;;;2.35;2.13;;;2.70;99.90;;;;;;4100667;28;20055;-95
2020/12/06 08:44:51;;;;;;;1.35;1.25;;;2.70;99.90;;;;;;4115808;28;20058;-86
2020/12/06 08:46:53;;;;;;;3.15;1.92;;;2.80;99.90;;;;;;4103929;28;20051;-89
2020/12/06 08:48:55;;;;;;;1.02;0.80;;;2.80;99.90;;;;;;4116255;28;20499;-94
2020/12/06 08:50:57;;;;;;;0.75;0.43;;;2.80;99.90;;;;;;4099906;28;20504;-90
2020/12/06 08:52:58;;;;;;;4.25;1.58;;;2.80;99.90;;;;;;4099392;28;20085;-90
2020/12/06 08:54:59;;;;;;;0.55;0.55;;;2.80;99.90;;;;;;4099397;28;20053;-90
2020/12/06 08:57:10;;;;;;;0.88;0.88;;;2.80;99.80;;;;;;4117243;28;20130;-91
2020/12/06 08:59:13;;;;;;;5.47;1.98;;;2.80;99.60;;;;;;4101847;28;20114;-90
2020/12/06 09:01:14;;;;;;;3.63;1.42;;;2.90;99.70;;;;;;4115636;28;20066;-91
2020/12/06 09:03:15;;;;;;;1.75;1.55;;;2.90;99.50;;;;;;4117531;28;20059;-91
2020/12/06 09:05:17;;;;;;;2.53;1.20;;;2.90;99.60;;;;;;4101931;28;20530;-91
2020/12/06 09:07:18;;;;;;;2.53;1.73;;;2.90;99.60;;;;;;4116667;28;20051;-90
2020/12/06 09:09:20;;;;;;;2.72;0.80;;;2.90;99.20;;;;;;4114923;28;20049;-91
2020/12/06 09:11:22;;;;;;;0.75;0.75;;;2.90;99.20;;;;;;4105375;28;20146;-87
2020/12/06 09:13:23;;;;;;;1.52;1.27;;;2.90;99.50;;;;;;4113505;28;20541;-91
2020/12/06 09:15:24;;;;;;;2.38;1.20;;;2.90;99.40;;;;;;4105431;28;20057;-91
2020/12/06 09:17:26;;;;;;;0.90;0.85;;;3.00;99.50;;;;;;4102671;28;20046;-90
2020/12/06 09:19:27;;;;;;;1.58;1.48;;;3.00;99.40;;;;;;4102097;28;20043;-88
2020/12/06 09:21:28;;;;;;;2.10;0.90;;;3.00;99.50;;;;;;4100000;28;20043;-91
2020/12/06 09:23:32;;;;;;;2.72;1.13;;;2.90;99.20;;;;;;4115730;28;20050;-91
2020/12/06 09:25:33;;;;;;;0.65;0.65;;;2.90;99.50;;;;;;4099735;28;20047;-91
2020/12/06 09:27:36;;;;;;;1.70;1.02;;;3.00;99.30;;;;;;4116716;28;20422;-90
2020/12/06 09:29:37;;;;;;;0.75;0.60;;;3.00;99.40;;;;;;4116018;28;20137;-87
2020/12/06 09:31:38;;;;;;;1.27;0.98;;;3.00;99.20;;;;;;4115377;28;20122;-89
2020/12/06 09:33:39;;;;;;;0.20;0.20;;;3.00;99.20;;;;;;4099795;28;20059;-91
2020/12/06 09:35:41;;;;;;;5.68;1.33;;;3.10;99.30;;;;;;4086262;29;20067;-92
2020/12/06 09:37:42;;;;;;;3.13;1.33;;;3.10;99.10;;;;;;4099246;28;20081;-91
2020/12/06 09:39:43;;;;;;;1.02;0.80;;;3.20;99.30;;;;;;4100608;28;20563;-88
2020/12/06 09:41:46;;;;;;;4.68;3.03;;;3.20;99.30;;;;;;4107297;28;20053;-83
2020/12/06 09:43:47;;;;;;;4.35;1.40;;;3.10;99.20;;;;;;4098106;28;20102;-85
2020/12/06 09:45:48;;;;;;;0.98;0.60;;;3.10;99.10;;;;;;4105770;28;20043;-87
2020/12/06 09:47:50;;;;;;;2.92;0.90;;;3.10;99.20;;;;;;4082590;28;20062;-88
2020/12/06 09:49:51;;;;;;;1.13;1.02;;;3.20;99.10;;;;;;4116017;28;20058;-89
2020/12/06 09:51:52;;;;;;;1.45;0.57;;;3.20;99.00;;;;;;4114108;28;20050;-90
2020/12/06 09:53:54;;;;;;;1.45;1.33;;;3.30;98.90;;;;;;4105329;28;20050;-89
2020/12/06 09:55:55;;;;;;;2.50;0.85;;;3.40;98.50;;;;;;4107112;28;20059;-90
2020/12/06 09:57:56;;;;;;;1.35;1.25;;;3.40;98.90;;;;;;4116095;28;20145;-90
2020/12/06 09:59:58;;;;;;;1.52;1.15;;;3.40;98.20;;;;;;4084297;29;20052;-88
2020/12/06 10:02:00;;;;;;;3.60;0.50;;;3.40;98.50;;;;;;4082794;29;20084;-89
2020/12/06 10:04:01;;;;;;;5.22;1.38;;;3.50;98.60;;;;;;4099027;28;20054;-88
2020/12/06 10:06:02;;;;;;;1.83;1.40;;;3.50;98.50;;;;;;4083667;28;20052;-87
2020/12/06 10:08:04;;;;;;;0.93;0.70;;;3.50;98.10;;;;;;4083578;29;20051;-90
2020/12/06 10:10:05;;;;;;;1.42;0.85;;;3.60;98.20;;;;;;4095868;28;20087;-89
2020/12/06 10:12:07;;;;;;;0.40;0.40;;;3.50;98.00;;;;;;4115375;28;20061;-89
2020/12/06 10:14:08;;;;;;;0.57;0.55;;;3.60;98.50;;;;;;4101702;28;20047;-89
2020/12/06 10:16:09;;;;;;;2.05;0.77;;;3.60;98.10;;;;;;4086203;29;20134;-91
2020/12/06 10:18:11;;;;;;;1.20;1.20;;;3.60;98.10;;;;;;4116321;28;20043;-90
2020/12/06 10:20:12;;;;;;;1.75;1.00;;;3.60;98.30;;;;;;4114698;28;20047;-86
2020/12/06 10:22:13;;;;;;;0.65;0.65;;;3.70;98.30;;;;;;4097734;28;20138;-86
2020/12/06 10:24:14;;;;;;;0.60;0.60;;;3.80;98.50;;;;;;4083512;29;20055;-92
2020/12/06 10:26:15;;;;;;;0.73;0.50;;;3.80;98.10;;;;;;4100789;28;20136;-91
2020/12/06 10:28:17;;;;;;;2.08;0.65;;;3.80;98.00;;;;;;4101334;28;20061;-91
2020/12/06 10:30:18;;;;;;;2.15;1.98;;;3.90;97.80;;;;;;4101418;28;20057;-90
2020/12/06 10:32:19;;;;;;;3.03;0.47;;;3.90;97.70;;;;;;4106797;28;20054;-89
2020/12/06 10:34:21;;;;;;;2.35;1.02;;;3.90;97.70;;;;;;4096507;28;20050;-89
2020/12/06 10:36:23;;;;;;;1.33;1.08;;;3.90;97.90;;;;;;4113041;28;20055;-83
2020/12/06 10:38:24;;;;;;;2.72;0.75;;;3.80;97.80;;;;;;4083056;29;20138;-89
2020/12/06 10:40:26;;;;;;;1.90;1.35;;;3.80;97.90;;;;;;4116885;28;20051;-93
2020/12/06 10:42:27;;;;;;;1.17;0.95;;;3.90;98.10;;;;;;4102643;29;20061;-89
2020/12/06 10:44:28;;;;;;;0.50;0.50;;;3.90;97.70;;;;;;4118634;28;20045;-89